Time;durP1;ratioP1;P1;durP2;ratioP2;P2;SDS_P1;SDS_P2;PMS_P1;PMS_P2;Temp;Humidity;BMP_temperature;BMP_pressure;BME280_temperature;BME280_humidity;BME280_pressure;Samples;Min_cycle;Max_cycle;Signal;HPM_P1;HPM_P2
2023/01/13 00:02:01;;;;;;;;;;;;;;;20.69;25.49;98222.78;5036980;28;1348;-75
2023/01/13 00:04:27;;;;;;;;;;;;;;;21.25;24.51;98231.34;5054006;28;1094;-76
2023/01/13 00:06:52;;;;;;;;;;;;;;;21.38;24.42;98233.50;5073607;28;1910;-76
2023/01/13 00:09:18;;;;;;;;;;;;;;;21.59;24.15;98238.69;5059676;28;941;-76
2023/01/13 00:11:43;;;;;;;;;;;;;;;21.54;24.18;98236.38;5059737;28;1059;-75
2023/01/13 00:14:08;;;;;;;;;;;;;;;21.17;24.73;98241.19;5058129;28;971;-76
2023/01/13 00:16:34;;;;;;;;;;;;;;;20.94;25.16;98238.47;5059383;28;867;-75
2023/01/13 00:18:59;;;;;;;;;;;;;;;20.86;25.15;98237.00;5073628;28;945;-76
2023/01/13 00:21:25;;;;;;;;;;;;;;;21.26;24.52;98232.13;5059197;28;900;-75
2023/01/13 00:23:51;;;;;;;;;;;;;;;21.32;24.79;98236.84;5058792;28;1027;-76
2023/01/13 00:26:20;;;;;;;;;;;;;;;21.52;24.25;98238.88;5057922;28;1971;-75
2023/01/13 00:28:46;;;;;;;;;;;;;;;21.22;24.38;98226.53;5074121;28;937;-76
2023/01/13 00:31:12;;;;;;;;;;;;;;;20.91;25.13;98233.66;5059403;28;913;-76
2023/01/13 00:33:38;;;;;;;;;;;;;;;21.01;24.83;98227.00;5058781;28;893;-76
2023/01/13 00:36:03;;;;;;;;;;;;;;;21.20;24.71;98229.03;5058837;28;1029;-76
2023/01/13 00:38:29;;;;;;;;;;;;;;;21.24;24.63;98223.25;5058934;28;1155;-75
2023/01/13 00:40:58;;;;;;;;;;;;;;;21.17;24.73;98224.22;5058716;28;904;-75
2023/01/13 00:43:24;;;;;;;;;;;;;;;21.23;24.71;98219.63;5074261;28;963;-76
2023/01/13 00:45:52;;;;;;;;;;;;;;;21.11;24.56;98214.66;5073891;28;892;-75
2023/01/13 00:48:18;;;;;;;;;;;;;;;20.86;25.27;98225.69;5073975;28;1905;-76
2023/01/13 00:50:44;;;;;;;;;;;;;;;21.06;24.87;98218.78;5058471;28;953;-75
2023/01/13 00:53:09;;;;;;;;;;;;;;;21.23;24.59;98216.81;5058183;28;993;-76
2023/01/13 00:55:35;;;;;;;;;;;;;;;21.49;24.17;98219.91;5058392;28;922;-75
2023/01/13 00:58:03;;;;;;;;;;;;;;;21.44;24.14;98220.44;5073957;28;1002;-76
2023/01/13 01:00:29;;;;;;;;;;;;;;;21.16;24.67;98205.66;5058308;28;857;-76
2023/01/13 01:02:55;;;;;;;;;;;;;;;21.22;24.44;98208.75;5058039;28;855;-75
2023/01/13 01:05:20;;;;;;;;;;;;;;;21.32;24.49;98208.56;5058359;28;950;-75
2023/01/13 01:07:46;;;;;;;;;;;;;;;21.25;24.44;98203.03;5058007;28;1973;-75
2023/01/13 01:10:11;;;;;;;;;;;;;;;21.38;24.33;98210.88;5058173;28;868;-76
2023/01/13 01:12:36;;;;;;;;;;;;;;;21.22;24.49;98203.09;5058440;28;933;-75
2023/01/13 01:15:04;;;;;;;;;;;;;;;20.98;24.79;98196.72;5057849;28;969;-75
2023/01/13 01:17:30;;;;;;;;;;;;;;;20.80;25.30;98203.56;5058195;28;964;-76
2023/01/13 01:19:56;;;;;;;;;;;;;;;21.30;24.43;98205.38;5072946;28;985;-75
2023/01/13 01:22:21;;;;;;;;;;;;;;;21.70;23.73;98204.47;5057755;28;951;-76
2023/01/13 01:24:47;;;;;;;;;;;;;;;21.72;23.78;98202.78;5058006;28;878;-76
2023/01/13 01:27:12;;;;;;;;;;;;;;;21.12;24.76;98207.75;5057961;28;1905;-76
2023/01/13 01:29:37;;;;;;;;;;;;;;;20.92;25.06;98218.28;5057858;28;958;-75
2023/01/13 01:32:03;;;;;;;;;;;;;;;21.31;24.64;98211.84;5057509;28;863;-76
2023/01/13 01:34:28;;;;;;;;;;;;;;;21.57;24.16;98208.00;5072003;28;1259;-76
2023/01/13 01:36:54;;;;;;;;;;;;;;;21.56;24.16;98200.75;5057751;28;976;-75
2023/01/13 01:39:19;;;;;;;;;;;;;;;21.24;24.34;98217.59;5072995;28;855;-75
2023/01/13 01:43:57;;;;;;;;;;;;;;;21.24;24.55;98204.28;5072995;28;880;-75
2023/01/13 01:44:48;;;;;;;;;;;;;;;21.07;24.69;98202.59;5057393;28;985;-76
2023/01/13 01:47:14;;;;;;;;;;;;;;;21.40;24.15;98202.72;5057181;28;1910;-76
2023/01/13 01:49:40;;;;;;;;;;;;;;;21.59;23.92;98202.69;5057531;28;977;-76
2023/01/13 01:52:23;;;;;;;;;;;;;;;21.39;24.29;98206.78;5073279;28;968;-76
2023/01/13 01:55:07;;;;;;;;;;;;;;;21.14;24.67;98208.13;5072949;28;1060;-75
2023/01/13 01:57:38;;;;;;;;;;;;;;;20.83;25.25;98213.22;5056077;28;965;-76
2023/01/13 02:00:04;;;;;;;;;;;;;;;20.79;25.13;98204.81;5072636;28;1484;-76
2023/01/13 02:02:37;;;;;;;;;;;;;;;21.76;23.76;98195.03;5070802;28;985;-75
2023/01/13 02:05:02;;;;;;;;;;;;;;;21.38;24.23;98203.16;5057260;28;1002;-75
2023/01/13 02:07:29;;;;;;;;;;;;;;;21.02;24.75;98201.09;5072298;28;1995;-76
2023/01/13 02:09:55;;;;;;;;;;;;;;;20.98;24.84;98210.88;5072247;28;996;-75
2023/01/13 02:12:30;;;;;;;;;;;;;;;21.30;24.44;98207.41;5072756;28;928;-75
2023/01/13 02:15:02;;;;;;;;;;;;;;;21.31;24.34;98204.13;5070395;28;1007;-75
2023/01/13 02:17:27;;;;;;;;;;;;;;;21.37;24.58;98200.78;5056902;28;974;-76
2023/01/13 02:20:06;;;;;;;;;;;;;;;21.17;24.31;98195.13;5056996;28;1043;-76
2023/01/13 02:22:35;;;;;;;;;;;;;;;21.22;24.78;98203.09;5072523;28;977;-76
2023/01/13 02:25:19;;;;;;;;;;;;;;;20.96;24.98;98185.06;5056546;28;1157;-76
2023/01/13 02:28:03;;;;;;;;;;;;;;;21.19;24.45;98193.47;5056785;28;1902;-75
2023/01/13 02:33:29;;;;;;;;;;;;;;;20.94;25.10;98204.53;5073998;28;1025;-75
2023/01/13 02:36:04;;;;;;;;;;;;;;;20.76;25.47;98211.31;5074093;28;988;-76
2023/01/13 02:38:41;;;;;;;;;;;;;;;21.02;24.88;98194.63;5074141;28;1098;-76
2023/01/13 02:44:07;;;;;;;;;;;;;;;21.20;24.75;98206.38;5073777;28;924;-76
2023/01/13 02:46:47;;;;;;;;;;;;;;;21.13;24.50;98200.84;5073918;28;1906;-75
2023/01/13 02:49:15;;;;;;;;;;;;;;;21.05;24.71;98199.44;5074271;28;1027;-75
2023/01/13 02:51:40;;;;;;;;;;;;;;;20.89;24.79;98202.19;5073879;28;940;-76
2023/01/13 02:54:07;;;;;;;;;;;;;;;21.44;24.17;98197.78;5073630;28;1033;-76
2023/01/13 02:56:33;;;;;;;;;;;;;;;21.35;24.35;98201.25;5073877;28;1162;-75
2023/01/13 02:58:58;;;;;;;;;;;;;;;21.61;23.88;98202.25;5073449;28;986;-76
2023/01/13 03:01:24;;;;;;;;;;;;;;;21.08;24.77;98199.34;5073767;28;1063;-75
2023/01/13 03:03:49;;;;;;;;;;;;;;;20.98;24.88;98199.56;5064888;28;1189;-75
2023/01/13 03:06:14;;;;;;;;;;;;;;;21.11;24.80;98197.69;5053898;28;1914;-76
2023/01/13 03:08:45;;;;;;;;;;;;;;;21.26;24.39;98198.97;5053530;28;1536;-75
2023/01/13 03:11:11;;;;;;;;;;;;;;;21.55;24.07;98199.16;5053619;28;1000;-76
2023/01/13 03:13:55;;;;;;;;;;;;;;;21.39;24.20;98195.47;5053549;28;1077;-76
2023/01/13 03:16:39;;;;;;;;;;;;;;;20.99;24.67;98196.31;5053484;28;1158;-75
2023/01/13 03:19:07;;;;;;;;;;;;;;;20.86;24.81;98205.88;5053390;28;1083;-77
2023/01/13 03:21:44;;;;;;;;;;;;;;;21.25;24.63;98210.72;5053829;28;1043;-76
2023/01/13 03:24:15;;;;;;;;;;;;;;;21.26;24.50;98204.63;5053231;28;1187;-75
2023/01/13 03:26:47;;;;;;;;;;;;;;;21.33;24.05;98201.66;5053164;28;1909;-76
2023/01/13 03:29:17;;;;;;;;;;;;;;;21.15;24.47;98206.91;5054027;28;1036;-76
2023/01/13 03:31:45;;;;;;;;;;;;;;;20.97;24.67;98204.44;5071258;28;961;-75
2023/01/13 03:34:15;;;;;;;;;;;;;;;20.73;24.84;98200.88;5071138;28;960;-76
2023/01/13 03:36:41;;;;;;;;;;;;;;;20.87;24.78;98194.13;5071196;28;946;-76
2023/01/13 03:39:08;;;;;;;;;;;;;;;21.27;24.47;98194.88;5071000;28;966;-75
2023/01/13 03:41:53;;;;;;;;;;;;;;;21.31;24.36;98190.00;5071641;28;1181;-76
2023/01/13 03:44:26;;;;;;;;;;;;;;;21.31;24.22;98200.50;5071716;28;968;-76
2023/01/13 03:46:55;;;;;;;;;;;;;;;20.98;24.72;98191.88;5070785;28;1914;-76
2023/01/13 03:49:21;;;;;;;;;;;;;;;20.99;24.58;98201.19;5055852;28;877;-75
2023/01/13 03:51:48;;;;;;;;;;;;;;;21.15;24.69;98204.06;5055505;28;997;-76
2023/01/13 03:54:14;;;;;;;;;;;;;;;21.18;24.56;98214.50;5070722;28;1171;-76
2023/01/13 03:56:44;;;;;;;;;;;;;;;21.18;24.61;98208.03;5070967;28;987;-76
2023/01/13 03:59:13;;;;;;;;;;;;;;;21.32;24.11;98217.03;5054407;28;919;-76
2023/01/13 04:01:41;;;;;;;;;;;;;;;20.99;24.69;98207.63;5071084;28;1056;-75
2023/01/13 04:04:07;;;;;;;;;;;;;;;20.40;24.66;98125.59;5070876;28;1115;-76
2023/01/13 04:06:32;;;;;;;;;;;;;;;20.67;25.16;98219.56;5049727;28;1902;-76
2023/01/13 04:09:01;;;;;;;;;;;;;;;21.13;24.81;98212.19;5032844;28;1377;-75
2023/01/13 04:11:29;;;;;;;;;;;;;;;21.16;24.42;98211.31;5049734;28;984;-76
2023/01/13 04:13:54;;;;;;;;;;;;;;;21.33;24.21;98215.81;5033473;28;1068;-76
2023/01/13 04:16:19;;;;;;;;;;;;;;;20.95;24.61;98217.41;5032733;28;1032;-75
2023/01/13 04:18:45;;;;;;;;;;;;;;;21.01;24.63;98212.84;5032980;28;990;-76
2023/01/13 04:21:10;;;;;;;;;;;;;;;21.08;24.44;98226.84;5035821;28;990;-76
2023/01/13 04:23:36;;;;;;;;;;;;;;;21.39;24.10;98223.78;5049857;28;1161;-75
2023/01/13 04:26:01;;;;;;;;;;;;;;;21.71;23.50;98217.38;5032761;28;1048;-75
2023/01/13 04:28:27;;;;;;;;;;;;;;;21.29;24.24;98222.75;5032691;28;1906;-76
2023/01/13 04:30:52;;;;;;;;;;;;;;;21.08;24.45;98229.66;5032837;28;1100;-75
2023/01/13 04:33:18;;;;;;;;;;;;;;;20.87;24.83;98238.59;5032667;28;938;-76
2023/01/13 04:35:43;;;;;;;;;;;;;;;21.16;24.71;98233.16;5032855;28;975;-76
2023/01/13 04:38:10;;;;;;;;;;;;;;;21.55;24.21;98232.31;5051450;28;1036;-76
2023/01/13 04:40:36;;;;;;;;;;;;;;;21.32;24.42;98236.06;5059242;28;908;-76
2023/01/13 04:43:01;;;;;;;;;;;;;;;20.90;24.91;98238.53;5074675;28;1667;-76
2023/01/13 04:45:27;;;;;;;;;;;;;;;20.95;24.90;98238.03;5078644;28;1027;-75
2023/01/13 04:47:52;;;;;;;;;;;;;;;21.23;24.37;98233.78;5078749;28;1968;-76
2023/01/13 04:50:21;;;;;;;;;;;;;;;21.28;24.22;98235.31;5077481;28;948;-76
2023/01/13 04:52:47;;;;;;;;;;;;;;;21.29;24.23;98234.06;5078208;28;915;-75
2023/01/13 04:55:12;;;;;;;;;;;;;;;21.11;24.45;98242.94;5078448;28;1013;-75
2023/01/13 04:57:38;;;;;;;;;;;;;;;21.02;24.54;98245.56;5076812;28;1477;-75
2023/01/13 05:00:04;;;;;;;;;;;;;;;21.00;24.60;98248.03;5077291;28;943;-75
2023/01/13 05:02:29;;;;;;;;;;;;;;;21.78;24.01;98249.19;5077528;28;935;-76
2023/01/13 05:04:55;;;;;;;;;;;;;;;22.35;22.64;98247.81;5077385;28;962;-76
2023/01/13 05:07:20;;;;;;;;;;;;;;;21.35;23.98;98251.38;5077387;28;1902;-76
2023/01/13 05:09:46;;;;;;;;;;;;;;;20.99;24.80;98252.09;5078849;28;987;-75
2023/01/13 05:17:39;;;;;;;;;;;;;;;21.41;24.34;98258.91;5078168;28;993;-76
2023/01/13 05:20:05;;;;;;;;;;;;;;;21.34;24.34;98250.56;5093414;28;912;-76
2023/01/13 05:25:20;;;;;;;;;;;;;;;21.02;24.82;98262.53;5076969;28;1644;-76
2023/01/13 05:27:46;;;;;;;;;;;;;;;21.36;24.36;98247.31;5077696;28;1995;-75
2023/01/13 05:30:11;;;;;;;;;;;;;;;21.37;24.12;98254.56;5077869;28;1926;-76
2023/01/13 05:32:37;;;;;;;;;;;;;;;21.47;23.96;98253.53;5077955;28;946;-76
2023/01/13 05:35:02;;;;;;;;;;;;;;;21.36;23.89;98253.78;5077966;28;956;-76
2023/01/13 05:37:28;;;;;;;;;;;;;;;21.00;24.86;98265.81;5076666;28;982;-76
2023/01/13 05:45:21;;;;;;;;;;;;;;;21.25;24.53;98265.28;5090896;28;1090;-76
2023/01/13 05:47:46;;;;;;;;;;;;;;;21.60;23.68;98262.94;5093550;28;1902;-75
2023/01/13 05:50:12;;;;;;;;;;;;;;;21.11;24.61;98265.59;5076591;28;941;-76
2023/01/13 05:52:37;;;;;;;;;;;;;;;20.97;25.01;98265.88;5077882;28;939;-75
2023/01/13 05:55:03;;;;;;;;;;;;;;;21.39;24.14;98260.59;5077294;28;911;-76
2023/01/13 05:57:28;;;;;;;;;;;;;;;21.24;24.34;98272.19;5046953;28;1576;-75
2023/01/13 05:59:54;;;;;;;;;;;;;;;21.19;24.54;98278.38;5050435;28;1841;-75
2023/01/13 06:02:19;;;;;;;;;;;;;;;20.91;24.50;98267.59;5032529;28;1707;-76
2023/01/13 06:04:44;;;;;;;;;;;;;;;21.09;24.71;98273.72;5015433;28;1074;-76
2023/01/13 06:07:10;;;;;;;;;;;;;;;20.97;25.06;98282.84;5014951;28;1902;-75
2023/01/13 06:09:35;;;;;;;;;;;;;;;21.67;23.98;98279.00;4998553;28;1075;-76
2023/01/13 06:12:01;;;;;;;;;;;;;;;21.58;24.17;98276.75;4998796;28;1027;-76
2023/01/13 06:14:38;;;;;;;;;;;;;;;21.53;23.94;98282.94;5014943;28;1044;-76
2023/01/13 06:17:10;;;;;;;;;;;;;;;21.31;24.45;98286.22;5020684;28;1018;-76
2023/01/13 06:19:36;;;;;;;;;;;;;;;21.09;24.49;98290.69;5018011;28;960;-76
2023/01/13 06:22:08;;;;;;;;;;;;;;;21.06;25.03;98300.03;5034799;28;944;-76
2023/01/13 06:24:33;;;;;;;;;;;;;;;21.47;24.08;98301.66;5009718;28;1671;-75
2023/01/13 06:26:59;;;;;;;;;;;;;;;21.51;24.10;98303.19;5013904;28;1973;-76
2023/01/13 06:29:24;;;;;;;;;;;;;;;21.37;24.38;98305.53;5037683;28;1482;-76
2023/01/13 06:31:50;;;;;;;;;;;;;;;21.21;24.32;98303.38;5034584;28;1070;-75
2023/01/13 06:34:15;;;;;;;;;;;;;;;20.96;24.76;98307.50;5069553;28;1049;-75
2023/01/13 06:36:42;;;;;;;;;;;;;;;21.25;24.64;98312.63;5092239;28;1617;-76
2023/01/13 06:39:07;;;;;;;;;;;;;;;21.33;24.20;98314.88;5077632;28;959;-77
2023/01/13 06:44:17;;;;;;;;;;;;;;;21.09;24.84;98307.69;5094351;28;939;-76
2023/01/13 06:46:42;;;;;;;;;;;;;;;21.13;24.87;98314.03;5077015;28;1906;-75
2023/01/13 06:49:08;;;;;;;;;;;;;;;21.15;24.64;98322.91;5076853;28;1481;-75
2023/01/13 06:51:33;;;;;;;;;;;;;;;21.44;24.29;98319.50;5077082;28;977;-76
2023/01/13 06:53:59;;;;;;;;;;;;;;;21.79;23.54;98324.41;5077754;28;954;-75
2023/01/13 06:56:24;;;;;;;;;;;;;;;21.45;24.17;98318.28;5078182;28;1476;-75
2023/01/13 06:58:49;;;;;;;;;;;;;;;21.18;24.48;98324.84;5076168;28;837;-76
2023/01/13 07:01:15;;;;;;;;;;;;;;;21.16;24.68;98323.69;5076212;28;951;-76
2023/01/13 07:03:40;;;;;;;;;;;;;;;21.08;24.53;98323.81;5076357;28;1118;-76
2023/01/13 07:06:06;;;;;;;;;;;;;;;21.11;24.52;98324.22;5075026;28;1477;-76
2023/01/13 07:08:31;;;;;;;;;;;;;;;21.33;24.52;98329.03;5090743;28;1905;-75
2023/01/13 07:10:57;;;;;;;;;;;;;;;21.45;24.40;98318.28;5076442;28;949;-75
2023/01/13 07:16:07;;;;;;;;;;;;;;;21.25;24.64;98326.75;5075427;28;1488;-76
2023/01/13 07:18:33;;;;;;;;;;;;;;;21.05;24.73;98332.41;5075865;28;967;-76
2023/01/13 07:21:08;;;;;;;;;;;;;;;21.05;24.65;98336.03;5076299;28;979;-75
2023/01/13 07:23:37;;;;;;;;;;;;;;;21.68;23.79;98338.00;5074428;28;899;-76
2023/01/13 07:26:02;;;;;;;;;;;;;;;21.58;23.87;98336.22;5075109;28;1543;-76
2023/01/13 07:28:28;;;;;;;;;;;;;;;21.72;23.93;98333.06;5074625;28;1898;-76
2023/01/13 07:30:53;;;;;;;;;;;;;;;21.06;24.77;98336.81;5056879;28;1064;-76
2023/01/13 07:33:19;;;;;;;;;;;;;;;20.96;24.89;98332.16;5074281;28;910;-76
2023/01/13 07:35:45;;;;;;;;;;;;;;;21.23;24.72;98341.31;5075296;28;1472;-75
2023/01/13 07:38:10;;;;;;;;;;;;;;;21.13;24.83;98333.84;5076162;28;1098;-75
2023/01/13 07:40:36;;;;;;;;;;;;;;;21.66;23.88;98334.00;5075982;28;956;-76
2023/01/13 07:45:45;;;;;;;;;;;;;;;21.06;24.71;98342.47;5074815;28;1366;-76
2023/01/13 07:48:11;;;;;;;;;;;;;;;21.03;24.94;98349.78;5075902;28;1902;-75
2023/01/13 07:50:36;;;;;;;;;;;;;;;21.16;24.48;98349.97;5076025;28;984;-76
2023/01/13 07:53:02;;;;;;;;;;;;;;;21.26;24.43;98357.44;5074997;28;1454;-75
2023/01/13 07:55:27;;;;;;;;;;;;;;;21.28;24.59;98346.47;5075687;28;965;-75
2023/01/13 07:57:53;;;;;;;;;;;;;;;21.11;24.39;98361.78;5076077;28;916;-75
2023/01/13 08:00:18;;;;;;;;;;;;;;;20.97;24.75;98367.69;5075715;28;1155;-75
2023/01/13 08:02:44;;;;;;;;;;;;;;;21.01;24.94;98368.44;5075115;28;1500;-76
2023/01/13 08:05:09;;;;;;;;;;;;;;;21.29;24.55;98356.56;5073568;28;1189;-76
2023/01/13 08:07:35;;;;;;;;;;;;;;;21.28;24.39;98359.84;5075474;28;1948;-75
2023/01/13 08:10:01;;;;;;;;;;;;;;;21.36;24.34;98364.16;5075469;28;962;-76
2023/01/13 08:15:11;;;;;;;;;;;;;;;21.01;24.82;98379.75;5078235;28;994;-76
2023/01/13 08:17:36;;;;;;;;;;;;;;;21.00;24.93;98378.97;5079029;28;982;-75
2023/01/13 08:20:02;;;;;;;;;;;;;;;21.22;24.79;98373.69;5078987;28;940;-75
2023/01/13 08:22:29;;;;;;;;;;;;;;;21.23;24.44;98374.50;5079219;28;959;-76
2023/01/13 08:24:55;;;;;;;;;;;;;;;21.38;24.20;98380.72;5078470;28;1460;-76
2023/01/13 08:27:21;;;;;;;;;;;;;;;21.17;24.30;98381.88;5094386;28;1913;-75
2023/01/13 08:29:46;;;;;;;;;;;;;;;21.00;24.81;98387.44;5079168;28;1110;-76
2023/01/13 08:32:12;;;;;;;;;;;;;;;21.00;24.82;98383.81;5079062;28;965;-76
2023/01/13 08:34:37;;;;;;;;;;;;;;;21.25;24.60;98386.19;5078359;28;1489;-76
2023/01/13 08:37:02;;;;;;;;;;;;;;;21.28;24.34;98385.31;5094436;28;915;-76
2023/01/13 08:39:28;;;;;;;;;;;;;;;21.21;24.71;98372.09;5078660;28;977;-75
2023/01/13 08:41:53;;;;;;;;;;;;;;;21.25;24.40;98377.69;5093506;28;1002;-76
2023/01/13 08:44:24;;;;;;;;;;;;;;;21.12;24.64;98385.22;5088437;28;1585;-75
2023/01/13 08:46:50;;;;;;;;;;;;;;;20.97;24.75;98382.66;5093483;28;1906;-75
2023/01/13 08:49:15;;;;;;;;;;;;;;;21.39;24.20;98377.44;5078672;28;904;-76
2023/01/13 08:51:41;;;;;;;;;;;;;;;21.12;24.68;98380.34;5078897;28;1232;-76
2023/01/13 08:54:06;;;;;;;;;;;;;;;21.27;24.39;98387.34;5077710;28;1532;-75
2023/01/13 08:56:32;;;;;;;;;;;;;;;21.36;24.25;98377.53;5079068;28;933;-75
2023/01/13 08:58:58;;;;;;;;;;;;;;;21.11;24.77;98375.94;5078237;28;953;-76
2023/01/13 09:01:23;;;;;;;;;;;;;;;20.95;24.95;98381.50;5078361;28;924;-76
2023/01/13 09:03:48;;;;;;;;;;;;;;;21.36;24.68;98377.53;5076379;28;1509;-76
2023/01/13 09:06:14;;;;;;;;;;;;;;;21.26;24.58;98374.44;5077166;28;938;-75
2023/01/13 09:08:39;;;;;;;;;;;;;;;21.23;24.82;98380.94;5052369;28;1997;-76
2023/01/13 09:13:10;;;;;;;;;;;;;;;21.24;24.45;98374.06;5038073;28;1024;-76
2023/01/13 09:13:50;;;;;;;;;;;;;;;21.31;24.55;98371.13;5036790;28;1486;-76
2023/01/13 09:16:16;;;;;;;;;;;;;;;20.89;24.93;98371.91;5038344;28;997;-75
2023/01/13 09:18:41;;;;;;;;;;;;;;;21.08;24.90;98373.97;5038235;28;900;-75
2023/01/13 09:21:08;;;;;;;;;;;;;;;21.38;24.33;98360.88;5038194;28;1109;-76
2023/01/13 09:23:33;;;;;;;;;;;;;;;21.40;24.26;98364.06;5053117;28;920;-75
2023/01/13 09:25:59;;;;;;;;;;;;;;;21.24;24.53;98374.06;5037002;28;1486;-76
2023/01/13 09:28:24;;;;;;;;;;;;;;;21.23;24.53;98369.63;5037175;28;1989;-75
2023/01/13 09:30:50;;;;;;;;;;;;;;;20.94;25.00;98368.59;5038290;28;922;-76
2023/01/13 09:36:00;;;;;;;;;;;;;;;21.43;24.17;98364.00;5037212;28;1662;-76
2023/01/13 09:38:25;;;;;;;;;;;;;;;21.32;24.44;98361.41;5037896;28;941;-75
2023/01/13 09:40:51;;;;;;;;;;;;;;;21.06;24.61;98365.13;5037994;28;959;-76
2023/01/13 09:46:04;;;;;;;;;;;;;;;20.95;24.93;98362.47;5036729;28;1640;-76
2023/01/13 09:48:50;;;;;;;;;;;;;;;21.32;24.29;98350.06;5068322;28;1898;-75
2023/01/13 09:51:23;;;;;;;;;;;;;;;21.29;24.43;98345.25;5050853;28;989;-76
2023/01/13 09:53:50;;;;;;;;;;;;;;;21.26;24.74;98346.13;5073532;28;1454;-76
2023/01/13 09:56:15;;;;;;;;;;;;;;;21.01;24.85;98345.81;5058463;28;928;-76
2023/01/13 09:58:41;;;;;;;;;;;;;;;20.67;25.30;98346.00;5058400;28;933;-75
2023/01/13 10:01:09;;;;;;;;;;;;;;;20.68;25.48;98339.16;5058271;28;951;-76
2023/01/13 10:03:35;;;;;;;;;;;;;;;21.18;24.67;98341.84;5074725;28;975;-75
2023/01/13 10:06:14;;;;;;;;;;;;;;;21.27;24.57;98336.41;5056702;28;1542;-75
2023/01/13 10:08:40;;;;;;;;;;;;;;;21.55;24.22;98335.06;5089369;28;1906;-75
2023/01/13 10:14:01;;;;;;;;;;;;;;;20.89;25.31;98332.31;5093265;28;1476;-75
2023/01/13 10:16:40;;;;;;;;;;;;;;;21.45;24.44;98326.75;5075514;28;2064;-76
2023/01/13 10:19:17;;;;;;;;;;;;;;;21.26;24.61;98322.69;5094936;28;991;-76
2023/01/13 10:22:01;;;;;;;;;;;;;;;21.49;24.34;98325.47;5094548;28;1012;-76
2023/01/13 10:24:30;;;;;;;;;;;;;;;21.41;24.45;98326.06;5086054;28;1624;-76
2023/01/13 10:26:58;;;;;;;;;;;;;;;21.12;24.84;98320.13;5076873;28;1910;-76
2023/01/13 10:29:24;;;;;;;;;;;;;;;20.93;25.13;98324.53;5076474;28;1092;-75
2023/01/13 10:31:53;;;;;;;;;;;;;;;21.11;25.02;98313.69;5075230;28;963;-76
2023/01/13 10:34:20;;;;;;;;;;;;;;;21.15;24.75;98305.94;5075909;28;1525;-76
2023/01/13 10:37:15;;;;;;;;;;;;;;;21.17;25.02;98297.00;5058402;28;906;-75
2023/01/13 10:39:41;;;;;;;;;;;;;;;21.30;24.35;98295.94;5076050;28;1141;-76
2023/01/13 10:42:12;;;;;;;;;;;;;;;21.12;25.10;98295.47;5053758;28;1022;-75
2023/01/13 10:44:47;;;;;;;;;;;;;;;20.87;25.33;98295.16;5053284;28;1528;-75
2023/01/13 10:47:20;;;;;;;;;;;;;;;21.28;24.62;98287.03;5053667;28;1917;-75
2023/01/13 10:49:57;;;;;;;;;;;;;;;21.83;23.80;98281.84;5037497;28;1437;-76
2023/01/13 10:52:26;;;;;;;;;;;;;;;21.26;24.61;98283.06;5053816;28;942;-75
2023/01/13 10:54:52;;;;;;;;;;;;;;;21.20;24.65;98279.97;5052172;28;1584;-77
2023/01/13 10:57:18;;;;;;;;;;;;;;;20.81;25.63;98275.06;5053877;28;995;-76
2023/01/13 10:59:43;;;;;;;;;;;;;;;21.45;24.32;98278.63;5054205;28;954;-76
2023/01/13 11:02:17;;;;;;;;;;;;;;;21.29;24.64;98266.00;5036948;28;1045;-75
2023/01/13 11:04:52;;;;;;;;;;;;;;;21.51;24.28;98260.72;5053136;28;1469;-76
2023/01/13 11:07:24;;;;;;;;;;;;;;;20.91;24.99;98273.25;5036995;28;1914;-75
2023/01/13 11:10:08;;;;;;;;;;;;;;;21.08;24.93;98272.09;5053731;28;1044;-76
2023/01/13 11:12:41;;;;;;;;;;;;;;;21.12;25.06;98270.00;5060027;28;975;-76
2023/01/13 11:15:07;;;;;;;;;;;;;;;21.11;25.19;98265.59;5075623;28;1555;-76
2023/01/13 11:17:41;;;;;;;;;;;;;;;21.23;24.86;98273.41;5075017;28;993;-76
2023/01/13 11:20:10;;;;;;;;;;;;;;;21.08;25.00;98272.09;5074689;28;931;-75
2023/01/13 11:22:39;;;;;;;;;;;;;;;21.13;24.87;98268.75;5075527;28;927;-76
2023/01/13 11:25:07;;;;;;;;;;;;;;;21.07;24.97;98273.34;5074033;28;1922;-76
2023/01/13 11:27:38;;;;;;;;;;;;;;;21.26;24.79;98277.41;5057954;28;1902;-75
2023/01/13 11:30:23;;;;;;;;;;;;;;;21.22;24.71;98285.16;5074555;28;1007;-76
2023/01/13 11:33:00;;;;;;;;;;;;;;;21.28;24.72;98267.22;5075850;28;971;-76
2023/01/13 11:35:26;;;;;;;;;;;;;;;21.14;25.01;98275.22;5075098;28;1564;-75
2023/01/13 11:37:57;;;;;;;;;;;;;;;20.81;25.32;98275.84;5074946;28;894;-76
2023/01/13 11:40:22;;;;;;;;;;;;;;;21.13;25.06;98274.41;5056928;28;1190;-76
2023/01/13 11:42:48;;;;;;;;;;;;;;;20.78;25.67;98276.75;5075787;28;919;-75
2023/01/13 11:45:33;;;;;;;;;;;;;;;20.65;25.75;98272.94;5075434;28;1600;-75
2023/01/13 11:47:59;;;;;;;;;;;;;;;20.99;25.28;98272.69;5056449;28;1906;-76
2023/01/13 11:50:33;;;;;;;;;;;;;;;21.20;25.17;98274.28;5057167;28;926;-76
2023/01/13 11:53:08;;;;;;;;;;;;;;;21.40;24.92;98274.31;5057415;28;1031;-76
2023/01/13 11:55:52;;;;;;;;;;;;;;;21.10;25.10;98264.00;5056807;28;1546;-75
2023/01/13 11:58:20;;;;;;;;;;;;;;;20.83;25.42;98271.78;5056891;28;1033;-76
2023/01/13 12:00:51;;;;;;;;;;;;;;;21.17;25.22;98275.16;5057188;28;961;-75
2023/01/13 12:03:19;;;;;;;;;;;;;;;21.07;25.08;98276.16;5057385;28;1005;-75
2023/01/13 12:05:47;;;;;;;;;;;;;;;21.19;25.01;98280.38;5052681;28;1553;-76
2023/01/13 12:08:51;;;;;;;;;;;;;;;21.24;24.92;98280.69;5036775;28;1914;-75
2023/01/13 12:11:31;;;;;;;;;;;;;;;21.20;25.29;98279.97;4978072;28;1060;-76
2023/01/13 12:14:03;;;;;;;;;;;;;;;21.07;25.10;98293.16;4980084;28;1487;-76
2023/01/13 12:16:29;;;;;;;;;;;;;;;21.29;24.96;98294.28;4997419;28;1036;-76
2023/01/13 12:18:58;;;;;;;;;;;;;;;21.46;24.64;98297.25;4981469;28;930;-76
2023/01/13 12:21:24;;;;;;;;;;;;;;;21.32;25.00;98304.78;4997234;28;952;-76
2023/01/13 12:23:53;;;;;;;;;;;;;;;21.07;25.48;98308.09;4980681;28;1650;-76
2023/01/13 12:26:18;;;;;;;;;;;;;;;20.90;25.43;98311.28;5019586;28;1671;-76
2023/01/13 12:29:02;;;;;;;;;;;;;;;20.72;25.99;98305.94;5036336;28;1888;-76
2023/01/13 12:31:28;;;;;;;;;;;;;;;21.35;25.07;98310.81;5019816;28;1079;-75
2023/01/13 12:33:53;;;;;;;;;;;;;;;21.42;24.86;98313.50;5035777;28;1676;-76
2023/01/13 12:36:21;;;;;;;;;;;;;;;21.25;25.08;98312.63;5036362;28;932;-76
2023/01/13 12:38:47;;;;;;;;;;;;;;;21.00;25.60;98304.59;5036864;28;1091;-75
2023/01/13 12:41:13;;;;;;;;;;;;;;;21.01;25.66;98311.84;5026812;28;996;-76
2023/01/13 12:46:29;;;;;;;;;;;;;;;21.45;24.72;98309.78;5092050;28;940;-75
2023/01/13 12:49:01;;;;;;;;;;;;;;;21.24;25.06;98305.34;5077544;28;1965;-76
2023/01/13 12:51:34;;;;;;;;;;;;;;;20.94;25.44;98306.34;5077472;28;1242;-76
2023/01/13 12:54:00;;;;;;;;;;;;;;;20.73;25.64;98297.03;5093510;28;1694;-76
2023/01/13 12:56:25;;;;;;;;;;;;;;;21.11;25.29;98299.53;5055958;28;982;-76
2023/01/13 12:58:51;;;;;;;;;;;;;;;21.54;25.02;98290.97;5038635;28;1007;-76
2023/01/13 13:01:17;;;;;;;;;;;;;;;21.58;24.73;98294.53;5056269;28;958;-75
2023/01/13 13:04:01;;;;;;;;;;;;;;;21.59;24.61;98304.63;5056196;28;1048;-76
2023/01/13 13:06:28;;;;;;;;;;;;;;;21.04;25.38;98299.69;5056010;28;963;-76
2023/01/13 13:08:59;;;;;;;;;;;;;;;20.96;25.61;98298.22;5038924;28;1906;-76
2023/01/13 13:14:36;;;;;;;;;;;;;;;21.22;25.35;98293.66;5054816;28;1615;-76
2023/01/13 13:17:02;;;;;;;;;;;;;;;21.50;25.11;98295.13;5055452;28;960;-76
2023/01/13 13:19:28;;;;;;;;;;;;;;;21.19;25.22;98300.19;5055991;28;952;-76
2023/01/13 13:22:11;;;;;;;;;;;;;;;20.99;25.44;98303.81;5055473;28;929;-76
2023/01/13 13:24:38;;;;;;;;;;;;;;;21.10;25.64;98297.94;5054954;28;1458;-76
2023/01/13 13:27:19;;;;;;;;;;;;;;;21.44;25.15;98305.34;5065981;28;1906;-75
2023/01/13 13:29:57;;;;;;;;;;;;;;;21.38;24.90;98307.91;5077881;28;889;-75
2023/01/13 13:32:25;;;;;;;;;;;;;;;21.22;25.19;98305.78;5077940;28;1029;-76
2023/01/13 13:34:51;;;;;;;;;;;;;;;21.06;25.65;98308.53;5077168;28;1544;-76
2023/01/13 13:37:21;;;;;;;;;;;;;;;21.04;25.75;98305.34;5077630;28;1021;-76
2023/01/13 13:48:19;;;;;;;;;;;;;;;20.88;25.86;98302.41;5054995;28;1922;-76
2023/01/13 13:50:48;;;;;;;;;;;;;;;20.58;26.35;98307.00;5038239;28;1240;-75
2023/01/13 13:53:14;;;;;;;;;;;;;;;21.12;25.73;98306.00;5038568;28;1483;-76
2023/01/13 13:55:39;;;;;;;;;;;;;;;21.08;25.78;98301.19;5053802;28;1480;-76
2023/01/13 13:58:11;;;;;;;;;;;;;;;21.30;25.34;98304.44;5038427;28;1033;-76
2023/01/13 14:00:37;;;;;;;;;;;;;;;21.30;25.29;98298.78;5055102;28;996;-75
2023/01/13 14:03:02;;;;;;;;;;;;;;;21.19;25.31;98300.19;5054656;28;986;-75